Time;durP1;ratioP1;P1;durP2;ratioP2;P2;SDS_P1;SDS_P2;PMS_P1;PMS_P2;Temp;Humidity;BMP_temperature;BMP_pressure;BME280_temperature;BME280_humidity;BME280_pressure;Samples;Min_cycle;Max_cycle;Signal;HPM_P1;HPM_P2
2023/12/29 00:01:36;;;;;;;15.23;2.30;;;6.80;99.90;;;;;;5041793;28;20037;-90
2023/12/29 00:04:02;;;;;;;23.45;3.55;;;6.80;99.90;;;;;;5028255;28;20022;-91
2023/12/29 00:06:27;;;;;;;15.00;2.75;;;6.70;99.90;;;;;;5029750;28;20024;-91
2023/12/29 00:08:53;;;;;;;17.35;2.35;;;6.70;99.90;;;;;;5031898;28;20087;-89
2023/12/29 00:11:22;;;;;;;19.95;2.60;;;6.70;99.90;;;;;;5028000;28;20362;-92
2023/12/29 00:13:48;;;;;;;19.23;2.42;;;6.70;99.90;;;;;;5027723;28;20041;-91
2023/12/29 00:16:15;;;;;;;16.58;2.30;;;6.70;99.90;;;;;;5018188;28;20022;-91
2023/12/29 00:18:41;;;;;;;21.92;2.40;;;6.70;99.90;;;;;;5029929;28;20079;-92
2023/12/29 00:21:07;;;;;;;14.65;2.22;;;6.60;99.90;;;;;;5033172;28;20112;-92
2023/12/29 00:23:35;;;;;;;12.55;1.92;;;6.70;99.90;;;;;;5031962;28;20111;-91
2023/12/29 00:26:01;;;;;;;16.77;3.03;;;6.70;99.90;;;;;;5032833;28;20028;-91
2023/12/29 00:28:27;;;;;;;17.27;2.35;;;6.70;99.90;;;;;;5035963;28;20033;-91
2023/12/29 00:30:52;;;;;;;16.90;2.00;;;6.70;99.90;;;;;;5034063;28;20026;-91
2023/12/29 00:33:18;;;;;;;19.25;2.55;;;6.70;99.90;;;;;;5030132;28;20076;-91
2023/12/29 00:35:44;;;;;;;16.15;2.80;;;6.60;99.90;;;;;;5032358;28;20053;-91
2023/12/29 00:38:09;;;;;;;18.55;2.65;;;6.60;99.90;;;;;;5032076;28;20030;-91
2023/12/29 00:40:35;;;;;;;9.75;2.50;;;6.60;99.90;;;;;;5032518;28;20083;-92
2023/12/29 00:43:01;;;;;;;15.50;2.25;;;6.60;99.90;;;;;;5032178;28;20017;-93
2023/12/29 00:45:32;;;;;;;16.77;3.55;;;6.50;99.90;;;;;;5032689;28;20022;-90
2023/12/29 00:48:02;;;;;;;16.77;2.63;;;6.60;99.90;;;;;;5029524;28;20048;-91
2023/12/29 00:50:28;;;;;;;20.45;1.88;;;6.60;99.90;;;;;;5032141;28;20473;-91
2023/12/29 00:52:54;;;;;;;13.10;2.30;;;6.60;99.90;;;;;;5033202;28;20017;-91
2023/12/29 00:55:20;;;;;;;18.60;2.25;;;6.60;99.90;;;;;;5032250;28;20162;-90
2023/12/29 00:57:45;;;;;;;17.05;1.98;;;6.60;99.90;;;;;;5032093;28;20048;-91
2023/12/29 01:00:13;;;;;;;15.27;2.42;;;6.60;99.90;;;;;;5033452;28;20033;-92
2023/12/29 01:02:39;;;;;;;9.10;1.50;;;6.60;99.90;;;;;;5031961;28;20010;-91
2023/12/29 01:05:06;;;;;;;17.77;2.70;;;6.60;99.90;;;;;;5032070;28;20033;-91
2023/12/29 01:07:31;;;;;;;13.77;2.47;;;6.60;99.90;;;;;;5036280;28;20032;-91
2023/12/29 01:09:57;;;;;;;21.10;2.63;;;6.60;99.90;;;;;;5038797;28;20067;-91
2023/12/29 01:12:23;;;;;;;17.52;2.60;;;6.50;99.90;;;;;;5032256;28;20057;-91
2023/12/29 01:14:48;;;;;;;22.15;3.30;;;6.50;99.90;;;;;;5032707;28;20112;-92
2023/12/29 01:17:14;;;;;;;14.05;1.52;;;6.50;99.90;;;;;;5050285;28;20049;-91
2023/12/29 01:19:40;;;;;;;13.85;2.20;;;6.50;99.90;;;;;;5053069;28;20032;-92
2023/12/29 01:22:05;;;;;;;14.90;2.45;;;6.50;99.90;;;;;;5052527;28;20043;-91
2023/12/29 01:24:31;;;;;;;14.45;2.20;;;6.50;99.90;;;;;;5053126;28;20112;-90
2023/12/29 01:26:57;;;;;;;17.63;2.20;;;6.60;99.90;;;;;;5053702;28;20021;-91
2023/12/29 01:29:22;;;;;;;24.33;3.38;;;6.60;99.90;;;;;;5053837;28;20037;-91
2023/12/29 01:31:48;;;;;;;19.65;2.45;;;6.60;99.90;;;;;;5053132;28;20017;-92
2023/12/29 01:34:14;;;;;;;24.70;5.35;;;6.60;99.90;;;;;;5053151;28;20033;-91
2023/12/29 01:36:39;;;;;;;13.18;2.60;;;6.50;99.90;;;;;;5052915;28;20025;-92
2023/12/29 01:39:05;;;;;;;22.63;2.42;;;6.50;99.90;;;;;;5052757;28;20033;-91
2023/12/29 01:41:31;;;;;;;15.40;2.05;;;6.50;99.90;;;;;;5052459;28;20085;-92
2023/12/29 01:44:00;;;;;;;13.55;2.08;;;6.40;99.90;;;;;;5056274;28;20045;-90
2023/12/29 01:46:31;;;;;;;17.20;3.75;;;6.40;99.90;;;;;;5056203;28;20507;-92
2023/12/29 01:48:58;;;;;;;18.15;3.28;;;6.40;99.90;;;;;;5055927;28;20044;-90
2023/12/29 01:51:25;;;;;;;17.73;3.15;;;6.30;99.90;;;;;;5056778;28;20052;-90
2023/12/29 01:53:54;;;;;;;15.45;2.42;;;6.30;99.90;;;;;;5056061;28;20036;-91
2023/12/29 01:56:21;;;;;;;13.70;1.42;;;6.30;99.90;;;;;;5056137;28;20388;-91
2023/12/29 01:58:51;;;;;;;12.27;1.95;;;6.40;99.90;;;;;;5054483;28;20116;-92
2023/12/29 02:01:18;;;;;;;19.98;2.20;;;6.40;99.90;;;;;;5054035;28;20025;-92
2023/12/29 02:03:45;;;;;;;14.98;2.13;;;6.40;99.90;;;;;;5053132;28;20025;-91
2023/12/29 02:06:12;;;;;;;21.52;2.17;;;6.40;99.90;;;;;;5053038;28;20040;-92
2023/12/29 02:08:38;;;;;;;12.00;2.38;;;6.40;99.90;;;;;;5054386;28;20079;-92
2023/12/29 02:11:07;;;;;;;12.00;1.65;;;6.40;99.90;;;;;;5052620;28;20489;-92
2023/12/29 02:13:33;;;;;;;18.35;1.60;;;6.40;99.90;;;;;;5052711;28;20033;-91
2023/12/29 02:16:12;;;;;;;18.40;2.25;;;6.40;99.90;;;;;;5052593;28;20078;-92
2023/12/29 02:18:40;;;;;;;8.60;2.10;;;6.40;99.90;;;;;;5037143;28;20400;-91
2023/12/29 02:21:06;;;;;;;9.93;1.27;;;6.50;99.90;;;;;;5052231;28;20120;-91
2023/12/29 02:23:32;;;;;;;18.92;2.22;;;6.50;99.90;;;;;;5052229;28;20175;-92
2023/12/29 02:26:07;;;;;;;16.50;2.05;;;6.50;99.90;;;;;;5052690;28;20021;-92
2023/12/29 02:28:35;;;;;;;14.82;2.08;;;6.50;99.90;;;;;;5052421;28;20040;-92
2023/12/29 02:31:07;;;;;;;21.23;2.22;;;6.60;99.90;;;;;;5052418;28;20029;-92
2023/12/29 02:33:38;;;;;;;13.32;2.63;;;6.60;99.90;;;;;;5052277;28;20107;-93
2023/12/29 02:36:07;;;;;;;10.38;2.05;;;6.60;99.90;;;;;;5052005;28;20025;-91
2023/12/29 02:38:33;;;;;;;21.30;2.22;;;6.60;99.90;;;;;;5052483;28;20507;-92
2023/12/29 02:41:00;;;;;;;12.93;1.98;;;6.60;99.90;;;;;;5053020;28;20495;-92
2023/12/29 02:43:25;;;;;;;11.88;2.28;;;6.60;99.90;;;;;;5054964;28;20492;-92
2023/12/29 02:45:51;;;;;;;15.57;2.28;;;6.60;99.90;;;;;;5059498;28;20036;-93
2023/12/29 02:48:17;;;;;;;12.13;1.60;;;6.60;99.90;;;;;;5053384;28;20029;-92
2023/12/29 02:50:42;;;;;;;19.80;2.90;;;6.70;99.90;;;;;;5052190;28;20029;-94
2023/12/29 02:53:08;;;;;;;17.52;2.42;;;6.70;99.90;;;;;;5052247;28;20163;-92
2023/12/29 02:55:34;;;;;;;16.45;2.88;;;6.70;99.90;;;;;;5052123;28;20369;-92
2023/12/29 02:58:00;;;;;;;11.30;1.17;;;6.70;99.90;;;;;;5052296;28;20029;-92
2023/12/29 03:00:26;;;;;;;20.73;3.08;;;6.60;99.90;;;;;;5053257;28;20021;-92
2023/12/29 03:02:51;;;;;;;14.23;1.85;;;6.60;99.90;;;;;;5052011;28;20439;-93
2023/12/29 03:05:17;;;;;;;15.73;2.47;;;6.60;99.90;;;;;;5054393;28;20029;-91
2023/12/29 03:07:43;;;;;;;22.25;2.60;;;6.60;99.90;;;;;;5055486;28;20120;-92
2023/12/29 03:10:08;;;;;;;15.80;1.98;;;6.50;99.90;;;;;;5054887;28;20028;-94
2023/12/29 03:12:34;;;;;;;8.60;1.42;;;6.50;99.90;;;;;;5055258;28;20025;-93
2023/12/29 03:15:00;;;;;;;17.63;2.47;;;6.50;99.90;;;;;;5055631;28;20112;-93
2023/12/29 03:17:26;;;;;;;18.58;1.65;;;6.50;99.90;;;;;;5054914;28;20453;-93
2023/12/29 03:19:52;;;;;;;16.27;2.17;;;6.50;99.90;;;;;;5055300;28;20021;-93
2023/12/29 03:22:18;;;;;;;17.30;2.80;;;6.50;99.90;;;;;;5055126;28;20173;-93
2023/12/29 03:24:44;;;;;;;12.82;1.75;;;6.40;99.90;;;;;;5055521;28;20025;-93
2023/12/29 03:27:10;;;;;;;19.13;3.42;;;6.40;99.90;;;;;;5055138;28;20028;-92
2023/12/29 03:29:36;;;;;;;20.10;2.80;;;6.40;99.90;;;;;;5055019;28;20041;-92
2023/12/29 03:32:02;;;;;;;12.90;2.53;;;6.40;99.90;;;;;;5054478;28;20049;-92
2023/12/29 03:34:28;;;;;;;19.00;2.97;;;6.40;99.90;;;;;;5055015;28;20040;-92
2023/12/29 03:36:54;;;;;;;14.93;1.73;;;6.40;99.90;;;;;;5055226;28;20017;-91
2023/12/29 03:39:20;;;;;;;13.48;1.77;;;6.40;99.90;;;;;;5042347;28;20484;-91
2023/12/29 03:41:46;;;;;;;23.30;3.00;;;6.40;99.90;;;;;;5034294;28;20075;-90
2023/12/29 03:44:12;;;;;;;18.13;2.28;;;6.40;99.90;;;;;;5035050;28;20392;-91
2023/12/29 03:46:39;;;;;;;12.73;2.53;;;6.40;99.90;;;;;;5034568;28;20022;-91
2023/12/29 03:49:04;;;;;;;17.00;3.13;;;6.40;99.90;;;;;;5035405;28;20489;-92
2023/12/29 03:51:31;;;;;;;18.98;2.28;;;6.40;99.90;;;;;;5042898;28;20060;-91
2023/12/29 03:53:58;;;;;;;11.57;2.13;;;6.40;99.90;;;;;;5042554;28;20245;-91
2023/12/29 03:56:24;;;;;;;22.13;2.30;;;6.40;99.90;;;;;;5036547;28;20018;-92
2023/12/29 03:58:49;;;;;;;15.25;2.05;;;6.40;99.90;;;;;;5036363;28;20041;-91
2023/12/29 04:01:16;;;;;;;21.88;2.22;;;6.40;99.90;;;;;;5035625;28;20033;-91
2023/12/29 04:03:43;;;;;;;16.63;2.38;;;6.40;99.90;;;;;;5035534;28;20477;-93
2023/12/29 04:06:09;;;;;;;22.58;2.42;;;6.40;99.90;;;;;;5034788;28;20567;-91
2023/12/29 04:08:36;;;;;;;21.95;2.80;;;6.40;99.90;;;;;;5034363;28;20064;-89
2023/12/29 04:11:03;;;;;;;19.20;3.00;;;6.30;99.90;;;;;;5035255;28;20025;-90
2023/12/29 04:13:29;;;;;;;22.42;2.30;;;6.30;99.90;;;;;;5034290;28;20485;-91
2023/12/29 04:15:55;;;;;;;14.35;1.80;;;6.30;99.90;;;;;;5033491;28;20017;-90
2023/12/29 04:18:22;;;;;;;10.45;1.55;;;6.30;99.90;;;;;;5034243;28;20030;-92
2023/12/29 04:20:48;;;;;;;12.10;2.25;;;6.30;99.90;;;;;;5034201;28;20025;-92
2023/12/29 04:23:14;;;;;;;16.75;2.83;;;6.30;99.90;;;;;;5034145;28;20045;-91
2023/12/29 04:25:40;;;;;;;16.83;2.53;;;6.30;99.90;;;;;;5034293;28;20143;-90
2023/12/29 04:28:07;;;;;;;14.65;2.20;;;6.40;99.90;;;;;;5034114;28;20041;-91
2023/12/29 04:30:33;;;;;;;25.90;2.60;;;6.30;99.90;;;;;;5033916;28;20068;-91
2023/12/29 04:32:59;;;;;;;16.42;2.47;;;6.30;99.90;;;;;;5034078;28;20061;-93
2023/12/29 04:35:24;;;;;;;20.48;2.50;;;6.30;99.90;;;;;;5035123;28;20037;-91
2023/12/29 04:37:51;;;;;;;21.30;2.50;;;6.30;99.90;;;;;;5033694;28;20432;-92
2023/12/29 04:40:17;;;;;;;20.95;2.35;;;6.30;99.90;;;;;;5033625;28;20048;-93
2023/12/29 04:42:42;;;;;;;17.50;2.40;;;6.30;99.90;;;;;;5034120;28;20025;-91
2023/12/29 04:45:08;;;;;;;12.60;2.28;;;6.30;99.90;;;;;;5034018;28;20025;-93
2023/12/29 04:47:34;;;;;;;26.08;3.60;;;6.30;99.90;;;;;;5034030;28;20025;-93
2023/12/29 04:50:00;;;;;;;28.85;3.58;;;6.30;99.90;;;;;;5033189;28;20067;-92
2023/12/29 04:52:25;;;;;;;11.77;1.83;;;6.30;99.90;;;;;;5033323;28;20365;-92
2023/12/29 04:54:52;;;;;;;13.27;2.03;;;6.30;99.90;;;;;;5033684;28;20029;-93
2023/12/29 04:57:18;;;;;;;15.80;2.40;;;6.30;99.90;;;;;;5035749;28;20076;-92
2023/12/29 04:59:43;;;;;;;11.95;1.77;;;6.30;99.90;;;;;;5039189;28;20026;-90
2023/12/29 05:02:09;;;;;;;21.98;3.20;;;6.30;99.90;;;;;;5042481;28;20029;-91
2023/12/29 05:04:35;;;;;;;19.23;2.50;;;6.30;99.90;;;;;;5043991;28;20075;-91
2023/12/29 05:07:00;;;;;;;17.52;2.83;;;6.30;99.90;;;;;;5046111;28;20021;-91
2023/12/29 05:09:26;;;;;;;9.63;2.10;;;6.30;99.90;;;;;;5042938;28;20037;-92
2023/12/29 05:11:52;;;;;;;15.15;2.35;;;6.30;99.90;;;;;;5040442;28;20447;-92
2023/12/29 05:14:17;;;;;;;24.33;3.38;;;6.30;99.90;;;;;;5036546;28;20022;-92
2023/12/29 05:16:43;;;;;;;10.85;2.17;;;6.30;99.90;;;;;;5035174;28;20040;-91
2023/12/29 05:19:09;;;;;;;23.58;2.83;;;6.20;99.90;;;;;;5035406;28;20115;-91
2023/12/29 05:21:35;;;;;;;15.32;2.22;;;6.20;99.90;;;;;;5037927;28;20052;-92
2023/12/29 05:24:01;;;;;;;12.10;2.83;;;6.20;99.90;;;;;;5037036;28;20028;-92
2023/12/29 05:26:26;;;;;;;10.68;2.20;;;6.20;99.90;;;;;;5035787;28;20053;-91
2023/12/29 05:28:52;;;;;;;16.63;2.42;;;6.10;99.90;;;;;;5035236;28;20041;-91
2023/12/29 05:31:18;;;;;;;22.60;2.83;;;6.10;99.90;;;;;;5035169;28;20526;-91
2023/12/29 05:33:44;;;;;;;16.42;2.17;;;6.10;99.90;;;;;;5034268;28;20049;-91
2023/12/29 05:36:11;;;;;;;22.45;2.35;;;6.10;99.90;;;;;;5034954;28;20026;-91
2023/12/29 05:38:37;;;;;;;13.73;1.98;;;6.00;99.90;;;;;;5033906;28;20018;-91
2023/12/29 05:41:04;;;;;;;25.02;2.85;;;6.00;99.90;;;;;;5033894;28;20030;-92
2023/12/29 05:43:34;;;;;;;17.05;2.70;;;6.00;99.90;;;;;;5033609;28;20030;-92
2023/12/29 05:46:01;;;;;;;14.90;2.00;;;6.00;99.90;;;;;;5033313;28;20026;-91
2023/12/29 05:48:27;;;;;;;17.92;3.13;;;6.00;99.90;;;;;;5033206;28;20033;-92
2023/12/29 05:50:52;;;;;;;13.93;2.58;;;6.00;99.90;;;;;;5033051;28;20040;-92
2023/12/29 05:53:18;;;;;;;18.45;3.33;;;5.90;99.90;;;;;;5033018;28;20029;-92
2023/12/29 05:55:45;;;;;;;21.30;2.70;;;5.90;99.90;;;;;;5032986;28;20053;-92
2023/12/29 05:58:11;;;;;;;22.70;3.25;;;5.90;99.90;;;;;;5034281;28;20026;-92
2023/12/29 06:00:37;;;;;;;21.85;3.97;;;5.90;99.90;;;;;;5032770;28;20022;-92
2023/12/29 06:03:06;;;;;;;27.25;2.63;;;5.90;99.90;;;;;;5033088;28;20484;-93
2023/12/29 06:05:32;;;;;;;17.92;3.83;;;5.90;99.90;;;;;;5032901;28;20049;-92
2023/12/29 06:07:58;;;;;;;16.50;2.75;;;5.90;99.90;;;;;;5033040;28;20037;-93
2023/12/29 06:10:24;;;;;;;11.02;2.17;;;5.90;99.90;;;;;;5032760;28;20030;-92
2023/12/29 06:12:50;;;;;;;19.80;3.88;;;5.90;99.90;;;;;;5032862;28;20026;-92
2023/12/29 06:15:15;;;;;;;21.30;3.17;;;5.90;99.90;;;;;;5032871;28;20026;-92
2023/12/29 06:17:41;;;;;;;18.13;2.65;;;5.90;99.90;;;;;;5032465;28;20084;-93
2023/12/29 06:20:09;;;;;;;18.98;2.00;;;5.90;99.90;;;;;;5032907;28;20030;-92
2023/12/29 06:22:39;;;;;;;23.60;2.80;;;5.90;99.90;;;;;;5032896;28;20045;-92
2023/12/29 06:25:08;;;;;;;14.80;3.60;;;5.90;99.90;;;;;;5032214;28;20022;-93
2023/12/29 06:27:37;;;;;;;26.23;4.10;;;6.00;99.90;;;;;;5034105;28;20068;-92
2023/12/29 06:30:04;;;;;;;23.98;2.67;;;6.00;99.90;;;;;;5032567;28;20052;-92
2023/12/29 06:32:30;;;;;;;13.45;2.92;;;6.00;99.90;;;;;;5032532;28;20515;-91
2023/12/29 06:34:56;;;;;;;19.17;3.17;;;6.10;99.90;;;;;;5032679;28;20136;-92
2023/12/29 06:37:22;;;;;;;20.08;2.75;;;6.10;99.90;;;;;;5032445;28;20060;-92
2023/12/29 06:39:47;;;;;;;16.00;2.70;;;6.10;99.90;;;;;;5035439;28;20163;-92
2023/12/29 06:42:13;;;;;;;19.58;2.83;;;6.10;99.90;;;;;;5040063;28;20163;-92
2023/12/29 06:44:39;;;;;;;14.20;2.15;;;6.10;99.90;;;;;;5045135;28;20087;-91
2023/12/29 06:47:06;;;;;;;17.88;2.42;;;6.10;99.90;;;;;;5037409;28;20112;-92
2023/12/29 06:49:34;;;;;;;23.92;4.32;;;6.10;99.90;;;;;;5036661;28;20037;-92
2023/12/29 06:52:00;;;;;;;13.57;1.85;;;6.10;99.90;;;;;;5035838;28;20074;-92
2023/12/29 06:54:26;;;;;;;18.95;2.45;;;6.10;99.90;;;;;;5036004;28;20472;-92
2023/12/29 06:56:52;;;;;;;20.98;2.40;;;6.00;99.90;;;;;;5035818;28;20022;-92
2023/12/29 06:59:19;;;;;;;18.58;2.35;;;6.00;99.90;;;;;;5035375;28;20053;-91
2023/12/29 07:01:45;;;;;;;16.35;2.28;;;6.00;99.90;;;;;;5035740;28;20026;-91
2023/12/29 07:04:12;;;;;;;18.63;3.00;;;6.00;99.90;;;;;;5036662;28;20033;-91
2023/12/29 07:06:38;;;;;;;18.98;2.38;;;5.90;99.90;;;;;;5035557;28;20093;-92
2023/12/29 07:09:04;;;;;;;22.08;2.92;;;5.90;99.90;;;;;;5035310;28;20124;-93
2023/12/29 07:11:29;;;;;;;25.35;2.58;;;5.90;99.90;;;;;;5035528;28;20060;-92
2023/12/29 07:13:55;;;;;;;14.63;2.35;;;5.90;99.90;;;;;;5035403;28;20029;-91
2023/12/29 07:16:21;;;;;;;20.88;2.97;;;5.90;99.90;;;;;;5035758;28;20037;-92
2023/12/29 07:18:47;;;;;;;21.10;2.78;;;5.90;99.90;;;;;;5036245;28;20022;-92
2023/12/29 07:21:14;;;;;;;16.52;2.35;;;5.90;99.90;;;;;;5034315;28;20025;-93
2023/12/29 07:23:41;;;;;;;17.67;2.42;;;5.90;99.90;;;;;;5034990;28;20037;-91
2023/12/29 07:26:07;;;;;;;17.63;2.15;;;5.90;99.90;;;;;;5036358;28;20025;-91
2023/12/29 07:28:32;;;;;;;22.50;3.72;;;5.90;99.90;;;;;;5036716;28;20084;-91
2023/12/29 07:30:59;;;;;;;21.88;4.03;;;5.80;99.90;;;;;;5043192;28;20476;-91
2023/12/29 07:33:25;;;;;;;13.40;2.30;;;5.80;99.90;;;;;;5037608;28;20041;-92
2023/12/29 07:35:51;;;;;;;22.33;2.90;;;5.80;99.90;;;;;;5032408;28;20080;-92
2023/12/29 07:38:16;;;;;;;20.48;2.85;;;5.80;99.90;;;;;;5034478;28;20025;-93
2023/12/29 07:40:42;;;;;;;18.35;3.05;;;5.80;99.90;;;;;;5034722;28;20104;-92
2023/12/29 07:43:08;;;;;;;21.95;2.75;;;5.80;99.90;;;;;;5035801;28;20033;-92
2023/12/29 07:45:34;;;;;;;13.30;2.67;;;5.80;99.90;;;;;;5035452;28;20018;-93
2023/12/29 07:48:02;;;;;;;25.02;3.50;;;5.70;99.90;;;;;;5033715;28;20028;-93
2023/12/29 07:50:27;;;;;;;16.20;3.45;;;5.70;99.90;;;;;;5032337;28;20022;-93
2023/12/29 07:52:53;;;;;;;19.23;2.38;;;5.70;99.90;;;;;;5034364;28;20040;-93
2023/12/29 07:55:19;;;;;;;20.33;2.70;;;5.70;99.90;;;;;;5034230;28;20029;-94
2023/12/29 07:57:46;;;;;;;17.48;2.40;;;5.70;99.90;;;;;;5035346;28;20025;-92
2023/12/29 08:00:13;;;;;;;28.10;3.08;;;5.60;99.90;;;;;;5034485;28;20025;-92
2023/12/29 08:02:38;;;;;;;26.92;3.47;;;5.60;99.90;;;;;;5034101;28;20026;-91
2023/12/29 08:05:04;;;;;;;25.42;2.78;;;5.60;99.90;;;;;;5034015;28;20022;-93
2023/12/29 08:07:30;;;;;;;25.65;2.90;;;5.60;99.90;;;;;;5033902;28;20029;-92
2023/12/29 08:09:56;;;;;;;24.42;2.58;;;5.50;99.90;;;;;;5032268;28;20052;-93
2023/12/29 08:12:21;;;;;;;18.98;2.47;;;5.60;99.90;;;;;;5035271;28;20030;-93
2023/12/29 08:14:47;;;;;;;18.90;2.33;;;5.50;99.90;;;;;;5035099;28;20063;-93
2023/12/29 08:17:13;;;;;;;18.60;2.72;;;5.50;99.90;;;;;;5036527;28;20539;-93
2023/12/29 08:19:39;;;;;;;31.00;3.83;;;5.50;99.90;;;;;;5041378;28;20025;-91
2023/12/29 08:22:05;;;;;;;26.35;3.38;;;5.50;99.90;;;;;;5031974;28;20025;-91
2023/12/29 08:24:31;;;;;;;19.42;3.42;;;5.50;99.90;;;;;;5038081;28;20025;-92
2023/12/29 08:26:56;;;;;;;22.23;2.63;;;5.50;99.90;;;;;;5037317;28;20030;-93
2023/12/29 08:29:25;;;;;;;36.45;4.60;;;5.50;99.90;;;;;;5034850;28;20042;-91
2023/12/29 08:31:51;;;;;;;17.65;2.45;;;5.50;99.90;;;;;;5036062;28;20025;-92
2023/12/29 08:34:17;;;;;;;28.55;3.60;;;5.40;99.90;;;;;;5034171;28;20481;-93
2023/12/29 08:36:42;;;;;;;17.05;2.72;;;5.40;99.90;;;;;;5034170;28;20049;-91
2023/12/29 08:39:09;;;;;;;23.50;3.00;;;5.40;99.90;;;;;;5034046;28;20040;-93
2023/12/29 08:41:35;;;;;;;21.13;2.67;;;5.40;99.90;;;;;;5033656;28;20013;-93
2023/12/29 08:44:01;;;;;;;19.30;2.45;;;5.40;99.90;;;;;;5033774;28;20032;-92
2023/12/29 08:46:26;;;;;;;24.10;3.85;;;5.40;99.90;;;;;;5033456;28;20025;-92
2023/12/29 08:48:52;;;;;;;17.50;2.63;;;5.30;99.90;;;;;;5035057;28;20029;-92
2023/12/29 08:51:19;;;;;;;24.70;2.67;;;5.30;99.90;;;;;;5022965;28;20018;-92
2023/12/29 08:53:44;;;;;;;17.48;2.42;;;5.30;99.90;;;;;;5034871;28;20087;-92
2023/12/29 08:56:10;;;;;;;16.45;2.58;;;5.30;99.90;;;;;;5037025;28;20083;-91
2023/12/29 08:58:36;;;;;;;20.25;2.97;;;5.30;99.90;;;;;;5041835;28;20025;-93
2023/12/29 09:01:02;;;;;;;24.98;2.38;;;5.30;99.90;;;;;;5042334;28;20442;-91
2023/12/29 09:03:27;;;;;;;16.50;1.98;;;5.30;99.90;;;;;;5060803;28;20029;-91
2023/12/29 09:05:54;;;;;;;18.95;3.25;;;5.30;99.90;;;;;;5062851;28;20078;-91
2023/12/29 09:08:19;;;;;;;37.75;4.50;;;5.30;99.90;;;;;;5062749;28;20033;-92
2023/12/29 09:10:45;;;;;;;14.63;2.13;;;5.40;99.90;;;;;;5059704;28;20047;-91
2023/12/29 09:13:11;;;;;;;24.98;2.75;;;5.40;99.90;;;;;;5052925;28;20025;-92
2023/12/29 09:15:37;;;;;;;21.20;4.13;;;5.40;99.90;;;;;;5059935;28;20495;-91
2023/12/29 09:18:03;;;;;;;12.60;1.77;;;5.30;99.90;;;;;;5060234;28;20020;-93
2023/12/29 09:20:28;;;;;;;19.77;4.25;;;5.40;99.90;;;;;;5057363;28;20156;-92
2023/12/29 09:22:55;;;;;;;19.98;3.60;;;5.40;99.90;;;;;;5056166;28;20014;-92
2023/12/29 09:25:21;;;;;;;14.07;3.42;;;5.40;99.90;;;;;;5052587;28;20727;-91
2023/12/29 09:27:49;;;;;;;11.60;2.28;;;5.40;99.90;;;;;;5036837;28;20021;-91
2023/12/29 09:30:15;;;;;;;14.60;2.65;;;5.50;99.90;;;;;;5036932;28;20029;-91
2023/12/29 09:32:40;;;;;;;19.40;2.63;;;5.50;99.90;;;;;;5035648;28;20088;-92
2023/12/29 09:35:06;;;;;;;31.95;2.80;;;5.50;99.90;;;;;;5035939;28;20025;-92
2023/12/29 09:37:32;;;;;;;15.45;2.08;;;5.60;99.90;;;;;;5035594;28;20489;-91
2023/12/29 09:39:57;;;;;;;22.98;2.40;;;5.60;99.90;;;;;;5035026;28;20109;-92
2023/12/29 09:42:26;;;;;;;17.15;1.90;;;5.70;99.90;;;;;;5038480;28;20022;-93
2023/12/29 09:44:52;;;;;;;20.08;2.13;;;5.70;99.90;;;;;;5040422;28;20033;-91
2023/12/29 09:47:23;;;;;;;13.05;2.40;;;5.70;99.90;;;;;;5037640;28;20018;-91
2023/12/29 09:49:49;;;;;;;21.20;2.78;;;5.70;99.90;;;;;;5033568;28;20497;-92
2023/12/29 09:52:16;;;;;;;26.55;2.60;;;5.70;99.90;;;;;;5034479;28;20219;-91
2023/12/29 09:54:43;;;;;;;20.55;2.47;;;5.70;99.90;;;;;;5034496;28;20022;-91
2023/12/29 09:57:09;;;;;;;18.35;2.63;;;5.70;99.90;;;;;;5032894;28;20120;-88
2023/12/29 09:59:38;;;;;;;16.73;2.22;;;5.80;99.90;;;;;;5033527;28;20033;-91
2023/12/29 10:02:18;;;;;;;19.00;2.20;;;5.80;99.90;;;;;;5031896;28;20030;-93
2023/12/29 10:04:44;;;;;;;6.82;0.98;;;5.80;99.90;;;;;;5032302;28;20032;-91
2023/12/29 10:07:17;;;;;;;17.35;2.47;;;5.90;99.90;;;;;;5032470;28;20021;-91
2023/12/29 10:09:45;;;;;;;15.75;2.20;;;5.90;99.90;;;;;;5033082;28;20141;-93
2023/12/29 10:12:12;;;;;;;19.88;3.25;;;6.00;99.90;;;;;;5032198;28;20064;-92
2023/12/29 10:14:48;;;;;;;17.05;2.95;;;6.00;99.90;;;;;;5037014;28;20396;-89
2023/12/29 10:17:48;;;;;;;9.50;1.20;;;6.00;99.90;;;;;;5038214;28;20025;-91
2023/12/29 10:20:38;;;;;;;22.05;2.60;;;6.10;99.90;;;;;;5025794;28;20025;-91
2023/12/29 10:23:13;;;;;;;10.85;2.05;;;6.10;99.90;;;;;;5036771;28;20024;-93
2023/12/29 10:25:39;;;;;;;10.55;1.77;;;6.10;99.90;;;;;;5034853;28;20116;-92
2023/12/29 10:28:06;;;;;;;16.23;3.08;;;6.10;99.90;;;;;;5020306;28;20026;-92
2023/12/29 10:30:32;;;;;;;23.95;2.78;;;6.10;99.90;;;;;;5019080;28;20053;-91
2023/12/29 10:33:00;;;;;;;29.35;2.67;;;6.10;99.90;;;;;;5021113;28;20049;-91
2023/12/29 10:35:26;;;;;;;11.32;2.13;;;6.10;99.90;;;;;;5022194;28;20034;-93
2023/12/29 10:37:52;;;;;;;18.58;2.67;;;6.10;99.90;;;;;;5037679;28;20029;-92
2023/12/29 10:40:19;;;;;;;11.77;1.95;;;6.10;99.90;;;;;;5037406;28;20029;-90
2023/12/29 10:42:55;;;;;;;21.02;2.65;;;6.00;99.90;;;;;;5048376;28;20018;-92
2023/12/29 10:45:22;;;;;;;21.95;4.10;;;6.00;99.90;;;;;;5054836;28;20029;-90
2023/12/29 10:47:48;;;;;;;16.52;2.13;;;6.10;99.90;;;;;;5054160;28;20008;-92
2023/12/29 10:50:14;;;;;;;21.13;2.65;;;6.10;99.90;;;;;;5041626;28;20045;-90
2023/12/29 10:52:42;;;;;;;8.63;1.88;;;6.00;99.90;;;;;;5038966;28;20085;-93
2023/12/29 10:55:10;;;;;;;22.10;3.28;;;6.10;99.90;;;;;;5039543;28;20029;-92
2023/12/29 10:57:37;;;;;;;11.15;2.60;;;6.20;99.90;;;;;;5039337;28;20017;-91
2023/12/29 11:00:04;;;;;;;15.55;2.25;;;6.20;99.90;;;;;;5037849;28;20028;-92
2023/12/29 11:02:29;;;;;;;22.55;3.20;;;6.30;99.90;;;;;;5037255;28;20033;-90
2023/12/29 11:05:06;;;;;;;16.40;2.42;;;6.30;99.90;;;;;;5035263;28;20028;-92
2023/12/29 11:07:36;;;;;;;24.80;2.53;;;6.30;99.90;;;;;;5036697;28;20022;-92
2023/12/29 11:10:07;;;;;;;;;;;6.30;99.90;;;;;;5037490;28;20505;-92
2023/12/29 11:12:34;;;;;;;17.27;3.30;;;6.40;99.90;;;;;;5041181;28;19916;-92
2023/12/29 11:15:06;;;;;;;17.48;2.15;;;6.40;99.90;;;;;;5047644;28;20101;-90
2023/12/29 11:17:34;;;;;;;12.98;2.15;;;6.40;99.90;;;;;;5043124;28;20037;-92
2023/12/29 11:20:01;;;;;;;14.57;2.00;;;6.40;99.90;;;;;;5040016;28;20041;-92
2023/12/29 11:22:31;;;;;;;15.30;2.10;;;6.50;99.90;;;;;;5042399;28;20074;-92
2023/12/29 11:25:00;;;;;;;15.15;2.72;;;6.50;99.90;;;;;;5039069;28;20029;-92
2023/12/29 11:27:29;;;;;;;16.83;2.30;;;6.50;99.90;;;;;;5036825;28;20029;-92
2023/12/29 11:29:56;;;;;;;20.77;2.40;;;6.60;99.90;;;;;;5036980;28;20033;-94
2023/12/29 11:32:30;;;;;;;18.80;2.83;;;6.60;99.90;;;;;;5037243;28;20073;-91
2023/12/29 11:35:03;;;;;;;19.25;1.80;;;6.60;99.90;;;;;;5037179;28;20052;-92
2023/12/29 11:37:37;;;;;;;21.80;2.70;;;6.70;99.90;;;;;;5036569;28;20025;-91
2023/12/29 11:40:31;;;;;;;21.85;3.65;;;6.70;99.90;;;;;;5036717;28;20481;-91
2023/12/29 11:43:02;;;;;;;12.45;2.22;;;6.70;99.90;;;;;;5034822;28;20144;-92
2023/12/29 11:45:31;;;;;;;16.63;2.70;;;6.80;99.90;;;;;;5037125;28;20057;-89
2023/12/29 11:48:02;;;;;;;19.25;2.83;;;6.80;99.90;;;;;;5036929;28;20034;-92
2023/12/29 11:50:32;;;;;;;21.35;2.25;;;6.90;99.90;;;;;;5036502;28;20074;-91
2023/12/29 11:52:59;;;;;;;24.45;2.38;;;6.90;99.90;;;;;;5039421;28;20029;-90
2023/12/29 11:55:35;;;;;;;12.77;2.08;;;7.00;99.90;;;;;;5037844;28;20495;-93
2023/12/29 11:58:02;;;;;;;17.67;2.60;;;7.10;99.90;;;;;;5045378;28;20095;-94
2023/12/29 12:00:46;;;;;;;28.55;3.13;;;7.10;99.90;;;;;;5036729;28;20093;-93
2023/12/29 12:03:24;;;;;;;23.40;3.40;;;7.10;99.90;;;;;;5036323;28;20103;-91
2023/12/29 12:05:51;;;;;;;16.17;4.20;;;7.10;99.90;;;;;;5036154;28;20477;-92
2023/12/29 12:08:35;;;;;;;11.75;2.38;;;7.10;99.90;;;;;;5036184;28;20084;-92
2023/12/29 12:11:39;;;;;;;18.80;3.10;;;7.10;99.90;;;;;;5036439;28;20369;-94
2023/12/29 12:14:05;;;;;;;17.20;4.03;;;7.00;99.90;;;;;;4967694;28;20466;-93
2023/12/29 12:16:44;;;;;;;11.90;3.20;;;7.00;99.90;;;;;;4969667;28;20050;-93
2023/12/29 12:19:11;;;;;;;16.88;2.00;;;7.00;99.90;;;;;;4968604;28;20035;-92
2023/12/29 12:21:37;;;;;;;21.23;2.63;;;7.10;99.90;;;;;;4968004;28;20023;-93
2023/12/29 12:24:07;;;;;;;22.33;2.60;;;7.10;99.90;;;;;;4979817;28;20038;-94
2023/12/29 12:26:33;;;;;;;18.20;2.47;;;7.20;99.90;;;;;;4963336;28;20066;-93
2023/12/29 12:28:59;;;;;;;18.98;3.30;;;7.30;99.90;;;;;;4963476;28;20035;-94
2023/12/29 12:31:26;;;;;;;16.10;2.22;;;7.30;99.90;;;;;;4963880;28;20046;-95
2023/12/29 12:34:02;;;;;;;20.25;2.20;;;7.30;99.90;;;;;;4965793;28;20074;-95
2023/12/29 12:36:28;;;;;;;16.45;2.42;;;7.30;99.90;;;;;;4966802;28;20541;-94
2023/12/29 12:38:55;;;;;;;14.95;2.35;;;7.30;99.90;;;;;;4974144;28;20031;-93
2023/12/29 12:41:26;;;;;;;11.35;2.10;;;7.30;99.90;;;;;;4958873;28;20019;-93
2023/12/29 12:44:10;;;;;;;14.45;3.47;;;7.30;99.90;;;;;;4965481;28;20097;-94
2023/12/29 12:47:00;;;;;;;21.55;2.15;;;7.30;99.90;;;;;;5036320;28;20032;-94
2023/12/29 12:49:26;;;;;;;11.38;2.10;;;7.30;99.90;;;;;;5032489;28;20045;-95